createdAt,value
2018-04-30T00:00:15.669Z,15.52
2018-04-30T00:00:46.854Z,15.46
2018-04-30T00:01:18.059Z,15.45
2018-04-30T00:01:49.262Z,15.47
2018-04-30T00:02:20.469Z,15.47
2018-04-30T00:02:51.713Z,15.51
2018-04-30T00:03:22.921Z,15.61
2018-04-30T00:03:54.214Z,15.68
2018-04-30T00:04:25.417Z,15.72
2018-04-30T00:04:56.658Z,15.74
2018-04-30T00:05:27.868Z,15.76
2018-04-30T00:05:59.073Z,15.79
2018-04-30T00:06:30.290Z,15.78
2018-04-30T00:07:01.493Z,15.76
2018-04-30T00:07:32.699Z,15.72
2018-04-30T00:08:03.905Z,15.69
2018-04-30T00:08:35.234Z,15.67
2018-04-30T00:09:06.493Z,15.63
2018-04-30T00:09:37.707Z,15.65
2018-04-30T00:10:08.942Z,15.65
2018-04-30T00:10:40.142Z,15.67
2018-04-30T00:11:11.355Z,15.65
2018-04-30T00:11:42.565Z,15.64
2018-04-30T00:12:13.770Z,15.68
2018-04-30T00:12:44.981Z,15.72
2018-04-30T00:13:16.192Z,15.77
2018-04-30T00:13:47.419Z,15.81
2018-04-30T00:14:18.610Z,15.85
2018-04-30T00:14:49.968Z,15.90
2018-04-30T00:15:21.186Z,15.92
2018-04-30T00:15:52.390Z,15.89
2018-04-30T00:16:23.679Z,15.90
2018-04-30T00:16:54.885Z,15.88
2018-04-30T00:17:26.092Z,15.84
2018-04-30T00:17:57.298Z,15.79
2018-04-30T00:18:29.655Z,15.73
2018-04-30T00:19:00.864Z,15.72
2018-04-30T00:19:32.050Z,15.65
2018-04-30T00:20:03.302Z,15.64
2018-04-30T00:20:34.573Z,15.64
2018-04-30T00:21:05.820Z,15.66
2018-04-30T00:21:37.038Z,15.71
2018-04-30T00:22:08.265Z,15.71
2018-04-30T00:22:39.495Z,15.64
2018-04-30T00:23:10.702Z,15.68
2018-04-30T00:23:41.906Z,15.70
2018-04-30T00:24:13.116Z,15.75
2018-04-30T00:24:45.293Z,15.82
2018-04-30T00:25:16.498Z,15.85
2018-04-30T00:25:47.704Z,15.89
2018-04-30T00:26:18.981Z,15.90
2018-04-30T00:26:50.194Z,15.87
2018-04-30T00:27:21.405Z,15.88
2018-04-30T00:27:52.614Z,15.91
2018-04-30T00:28:23.827Z,15.93
2018-04-30T00:28:55.045Z,15.98
2018-04-30T00:29:26.240Z,16.02
2018-04-30T00:29:57.441Z,16.01
2018-04-30T00:30:28.698Z,16.03
2018-04-30T00:30:59.973Z,15.97
2018-04-30T00:31:31.184Z,15.99
2018-04-30T00:32:02.393Z,16.07
2018-04-30T00:32:33.610Z,16.05
2018-04-30T00:33:04.820Z,16.12
2018-04-30T00:33:36.084Z,16.16
2018-04-30T00:34:07.283Z,16.19
2018-04-30T00:34:38.489Z,16.19
2018-04-30T00:35:09.696Z,16.15
2018-04-30T00:35:40.967Z,16.14
2018-04-30T00:36:12.186Z,16.16
2018-04-30T00:36:43.384Z,16.18
2018-04-30T00:37:14.593Z,16.21
2018-04-30T00:37:45.791Z,16.21
2018-04-30T00:38:16.993Z,16.22
2018-04-30T00:38:48.189Z,16.21
2018-04-30T00:39:19.390Z,16.21
2018-04-30T00:39:50.597Z,16.26
2018-04-30T00:40:21.834Z,16.27
2018-04-30T00:40:53.065Z,16.32
2018-04-30T00:41:24.273Z,16.37
2018-04-30T00:41:55.482Z,16.41
2018-04-30T00:42:26.690Z,16.40
2018-04-30T00:42:57.925Z,16.34
2018-04-30T00:43:29.147Z,16.30
2018-04-30T00:44:00.357Z,16.27
2018-04-30T00:44:31.557Z,16.26
2018-04-30T00:45:02.773Z,16.24
2018-04-30T00:45:34.032Z,16.24
2018-04-30T00:46:05.223Z,16.28
2018-04-30T00:46:36.416Z,16.31
2018-04-30T00:47:07.618Z,16.33
2018-04-30T00:47:38.865Z,16.36
2018-04-30T00:48:10.065Z,16.38
2018-04-30T00:48:41.271Z,16.35
2018-04-30T00:49:12.485Z,16.38
2018-04-30T00:49:43.693Z,16.38
2018-04-30T00:50:14.888Z,16.40
2018-04-30T00:50:46.097Z,16.40
2018-04-30T00:51:17.302Z,16.39
2018-04-30T00:51:48.509Z,16.38
2018-04-30T00:52:19.722Z,16.30
2018-04-30T00:52:50.932Z,16.25
2018-04-30T00:53:22.145Z,16.22
2018-04-30T00:53:53.352Z,16.21
2018-04-30T00:54:24.552Z,16.18
2018-04-30T00:54:55.757Z,16.17
2018-04-30T00:55:26.978Z,16.17
2018-04-30T00:55:58.165Z,16.16
2018-04-30T00:56:29.402Z,16.16
2018-04-30T00:57:00.625Z,16.12
2018-04-30T00:57:31.838Z,16.08
2018-04-30T00:58:03.092Z,16.08
2018-04-30T00:58:34.302Z,16.10
2018-04-30T00:59:05.502Z,16.12
2018-04-30T00:59:36.720Z,16.14
2018-04-30T01:00:07.966Z,16.17
2018-04-30T01:00:39.221Z,16.13
2018-04-30T01:01:10.422Z,16.11
2018-04-30T01:01:41.649Z,16.03
2018-04-30T01:02:12.902Z,16.09
2018-04-30T01:02:44.112Z,16.12
2018-04-30T01:03:15.313Z,16.17
2018-04-30T01:03:46.530Z,16.24
2018-04-30T01:04:17.737Z,16.30
2018-04-30T01:04:49.051Z,16.35
2018-04-30T01:05:20.265Z,16.40
2018-04-30T01:05:51.477Z,16.43
2018-04-30T01:06:22.687Z,16.32
2018-04-30T01:06:53.893Z,16.51
2018-04-30T01:07:25.099Z,16.54
2018-04-30T01:07:56.333Z,16.55
2018-04-30T01:08:27.578Z,16.54
2018-04-30T01:08:58.830Z,16.51
2018-04-30T01:09:30.040Z,16.45
2018-04-30T01:10:01.262Z,16.45
2018-04-30T01:10:32.487Z,16.46
2018-04-30T01:11:03.702Z,16.46
2018-04-30T01:11:34.910Z,16.41
2018-04-30T01:12:06.118Z,16.43
2018-04-30T01:12:37.387Z,16.42
2018-04-30T01:13:08.581Z,16.45
2018-04-30T01:13:39.789Z,16.46
2018-04-30T01:14:11.008Z,16.46
2018-04-30T01:14:42.265Z,16.48
2018-04-30T01:15:13.445Z,16.50
2018-04-30T01:15:44.693Z,16.49
2018-04-30T01:16:15.892Z,16.49
2018-04-30T01:16:47.098Z,16.53
2018-04-30T01:17:18.310Z,16.57
2018-04-30T01:17:49.529Z,16.57
2018-04-30T01:18:20.732Z,16.58
2018-04-30T01:18:51.948Z,16.55
2018-04-30T01:19:23.157Z,16.55
2018-04-30T01:19:54.352Z,16.54
2018-04-30T01:20:25.579Z,16.53
2018-04-30T01:20:56.837Z,16.54
2018-04-30T01:21:28.368Z,16.56
2018-04-30T01:21:59.585Z,16.55
2018-04-30T01:22:30.796Z,16.59
2018-04-30T01:23:02.051Z,16.60
2018-04-30T01:23:33.258Z,16.59
2018-04-30T01:24:04.460Z,16.60
2018-04-30T01:24:35.665Z,16.54
2018-04-30T01:25:06.875Z,16.55
2018-04-30T01:25:38.144Z,16.53
2018-04-30T01:26:09.346Z,16.46
2018-04-30T01:26:40.598Z,16.44
2018-04-30T01:27:11.806Z,16.43
2018-04-30T01:27:43.038Z,16.38
2018-04-30T01:28:14.241Z,16.36
2018-04-30T01:28:45.445Z,16.30
2018-04-30T01:29:16.662Z,16.32
2018-04-30T01:29:47.862Z,16.31
2018-04-30T01:30:19.066Z,16.32
2018-04-30T01:30:50.273Z,16.30
2018-04-30T01:31:21.472Z,16.26
2018-04-30T01:31:52.747Z,16.28
2018-04-30T01:32:23.951Z,16.19
2018-04-30T01:32:55.153Z,16.20
2018-04-30T01:33:26.367Z,16.19
2018-04-30T01:33:57.562Z,16.16
2018-04-30T01:34:28.746Z,16.11
2018-04-30T01:34:59.962Z,16.08
2018-04-30T01:35:31.169Z,16.05
2018-04-30T01:36:02.374Z,15.99
2018-04-30T01:36:33.578Z,15.94
2018-04-30T01:37:04.804Z,15.89
2018-04-30T01:37:36.010Z,15.87
2018-04-30T01:38:07.254Z,15.87
2018-04-30T01:38:38.462Z,15.88
2018-04-30T01:39:09.674Z,15.87
2018-04-30T01:39:40.885Z,15.86
2018-04-30T01:40:12.101Z,15.89
2018-04-30T01:40:43.343Z,15.91
2018-04-30T01:41:14.587Z,15.94
2018-04-30T01:41:45.795Z,15.95
2018-04-30T01:42:17.005Z,15.98
2018-04-30T01:42:48.191Z,16.01
2018-04-30T01:43:19.405Z,16.05
2018-04-30T01:43:50.647Z,16.09
2018-04-30T01:44:21.849Z,16.09
2018-04-30T01:44:53.048Z,16.02
2018-04-30T01:45:24.245Z,15.94
2018-04-30T01:45:55.463Z,15.93
2018-04-30T01:46:26.671Z,15.93
2018-04-30T01:46:57.890Z,15.94
2018-04-30T01:47:29.145Z,15.98
2018-04-30T01:48:00.347Z,15.99
2018-04-30T01:48:31.551Z,16.04
2018-04-30T01:49:02.798Z,16.07
2018-04-30T01:49:34.007Z,16.08
2018-04-30T01:50:05.208Z,16.09
2018-04-30T01:50:36.424Z,16.10
2018-04-30T01:51:07.624Z,16.10
2018-04-30T01:51:38.837Z,16.09
2018-04-30T01:52:10.041Z,16.09
2018-04-30T01:53:18.443Z,16.12
2018-04-30T01:53:49.630Z,16.13
2018-04-30T01:54:20.835Z,16.13
2018-04-30T01:54:52.018Z,16.13
2018-04-30T01:55:23.216Z,16.13
2018-04-30T01:55:54.438Z,16.13
2018-04-30T01:56:25.649Z,16.13
2018-04-30T01:56:56.855Z,16.10
2018-04-30T01:57:28.042Z,16.12
2018-04-30T01:57:59.238Z,16.13
2018-04-30T01:58:30.482Z,16.15
2018-04-30T01:59:01.687Z,16.18
2018-04-30T01:59:32.933Z,16.21
2018-04-30T02:00:04.187Z,16.23
2018-04-30T02:00:35.436Z,16.22
2018-04-30T02:01:06.648Z,16.18
2018-04-30T02:01:37.834Z,16.15
2018-04-30T02:02:09.038Z,16.11
2018-04-30T02:02:40.245Z,16.07
2018-04-30T02:03:11.452Z,16.05
2018-04-30T02:03:42.699Z,16.03
2018-04-30T02:04:13.914Z,16.01
2018-04-30T02:04:45.134Z,16.01
2018-04-30T02:05:16.336Z,15.99
2018-04-30T02:05:47.554Z,15.97
2018-04-30T02:06:18.789Z,15.97
2018-04-30T02:06:49.996Z,15.96
2018-04-30T02:07:21.209Z,15.92
2018-04-30T02:07:52.412Z,15.91
2018-04-30T02:08:23.616Z,15.91
2018-04-30T02:08:54.821Z,15.90
2018-04-30T02:09:26.084Z,15.88
2018-04-30T02:09:57.281Z,15.85
2018-04-30T02:10:28.462Z,15.85
2018-04-30T02:10:59.668Z,15.83
2018-04-30T02:11:30.908Z,15.78
2018-04-30T02:12:02.115Z,15.78
2018-04-30T02:12:33.320Z,15.76
2018-04-30T02:13:04.529Z,15.74
2018-04-30T02:13:35.739Z,15.72
2018-04-30T02:14:06.922Z,15.70
2018-04-30T02:14:38.189Z,15.69
2018-04-30T02:15:09.397Z,15.66
2018-04-30T02:15:40.597Z,15.64
2018-04-30T02:16:11.798Z,15.65
2018-04-30T02:16:42.983Z,15.65
2018-04-30T02:17:14.180Z,15.63
2018-04-30T02:17:45.389Z,15.61
2018-04-30T02:18:16.602Z,15.57
2018-04-30T02:18:47.828Z,15.54
2018-04-30T02:19:19.035Z,15.52
2018-04-30T02:19:50.272Z,15.50
2018-04-30T02:20:21.472Z,15.45
2018-04-30T02:20:52.678Z,15.41
2018-04-30T02:21:23.910Z,15.32
2018-04-30T02:21:55.135Z,15.23
2018-04-30T02:22:26.404Z,15.19
2018-04-30T02:22:57.613Z,15.14
2018-04-30T02:23:28.830Z,15.09
2018-04-30T02:24:00.037Z,15.04
2018-04-30T02:24:31.240Z,15.00
2018-04-30T02:25:02.526Z,14.95
2018-04-30T02:25:33.747Z,14.92
2018-04-30T02:26:04.958Z,14.88
2018-04-30T02:26:36.226Z,14.83
2018-04-30T02:27:07.441Z,14.81
2018-04-30T02:27:38.656Z,14.80
2018-04-30T02:28:09.861Z,14.80
2018-04-30T02:28:41.066Z,14.80
2018-04-30T02:29:12.282Z,14.75
2018-04-30T02:29:43.509Z,14.74
2018-04-30T02:30:14.756Z,14.66
2018-04-30T02:30:45.967Z,14.61
2018-04-30T02:31:17.182Z,14.58
2018-04-30T02:31:48.388Z,14.55
2018-04-30T02:32:19.597Z,14.51
2018-04-30T02:32:50.858Z,14.47
2018-04-30T02:33:22.069Z,14.43
2018-04-30T02:33:53.269Z,14.38
2018-04-30T02:34:24.496Z,14.31
2018-04-30T02:34:55.713Z,14.29
2018-04-30T02:35:26.915Z,14.28
2018-04-30T02:35:58.120Z,14.27
2018-04-30T02:36:29.322Z,14.24
2018-04-30T02:37:00.535Z,14.20
2018-04-30T02:37:31.761Z,14.13
2018-04-30T02:38:03.058Z,14.09
2018-04-30T02:38:34.285Z,14.05
2018-04-30T02:39:05.501Z,14.02
2018-04-30T02:39:36.705Z,14.01
2018-04-30T02:40:07.913Z,14.00
2018-04-30T02:40:39.151Z,13.99
2018-04-30T02:41:10.392Z,13.99
2018-04-30T02:41:41.606Z,13.98
2018-04-30T02:42:12.810Z,13.97
2018-04-30T02:42:44.017Z,13.96
2018-04-30T02:43:15.277Z,13.96
2018-04-30T02:43:46.477Z,13.94
2018-04-30T02:44:17.668Z,13.93
2018-04-30T02:44:48.870Z,13.93
2018-04-30T02:45:20.078Z,13.92
2018-04-30T02:45:51.292Z,13.94
2018-04-30T02:46:22.511Z,13.91
2018-04-30T02:46:53.721Z,13.92
2018-04-30T02:47:24.939Z,13.91
2018-04-30T02:47:56.162Z,13.90
2018-04-30T02:48:27.429Z,13.89
2018-04-30T02:48:58.658Z,13.86
2018-04-30T02:49:29.868Z,13.84
2018-04-30T02:50:01.076Z,13.82
2018-04-30T02:50:32.292Z,13.79
2018-04-30T02:51:03.510Z,13.78
2018-04-30T02:51:34.713Z,13.76
2018-04-30T02:52:05.919Z,13.75
2018-04-30T02:52:37.125Z,13.74
2018-04-30T02:53:08.334Z,13.71
2018-04-30T02:53:39.628Z,13.70
2018-04-30T02:54:10.842Z,13.68
2018-04-30T02:54:42.055Z,13.68
2018-04-30T02:55:13.291Z,13.67
2018-04-30T02:55:44.494Z,13.66
2018-04-30T02:56:15.721Z,13.65
2018-04-30T02:56:46.932Z,13.63
2018-04-30T02:57:18.135Z,13.60
2018-04-30T02:57:49.346Z,13.58
2018-04-30T02:58:20.602Z,13.56
2018-04-30T02:58:51.845Z,13.54
2018-04-30T02:59:23.065Z,13.53
2018-04-30T02:59:54.294Z,13.54
2018-04-30T03:00:25.513Z,13.53
2018-04-30T03:00:56.713Z,13.54
2018-04-30T03:01:27.978Z,13.56
2018-04-30T03:01:59.181Z,13.55
2018-04-30T03:02:30.384Z,13.56
2018-04-30T03:03:01.590Z,13.55
2018-04-30T03:03:32.797Z,13.53
2018-04-30T03:04:04.009Z,13.52
2018-04-30T03:04:35.220Z,13.51
2018-04-30T03:05:06.450Z,13.49
2018-04-30T03:05:37.657Z,13.47
2018-04-30T03:06:08.866Z,13.46
2018-04-30T03:06:40.112Z,13.45
2018-04-30T03:07:11.324Z,13.43
2018-04-30T03:07:42.880Z,13.40
2018-04-30T03:08:14.102Z,13.38
2018-04-30T03:08:45.301Z,13.37
2018-04-30T03:09:16.499Z,13.35
2018-04-30T03:09:47.721Z,13.34
2018-04-30T03:10:18.985Z,13.32
2018-04-30T03:10:50.246Z,13.28
2018-04-30T03:11:21.456Z,13.26
2018-04-30T03:11:52.681Z,13.24
2018-04-30T03:12:23.881Z,13.21
2018-04-30T03:12:55.117Z,13.19
2018-04-30T03:13:26.312Z,13.14
2018-04-30T03:13:57.514Z,13.13
2018-04-30T03:14:28.716Z,13.11
2018-04-30T03:14:59.920Z,13.09
2018-04-30T03:15:31.145Z,13.06
2018-04-30T03:16:02.357Z,13.05
2018-04-30T03:16:33.557Z,13.06
2018-04-30T03:17:04.761Z,13.04
2018-04-30T03:17:35.965Z,13.01
2018-04-30T03:18:07.231Z,12.99
2018-04-30T03:18:38.447Z,12.98
2018-04-30T03:19:09.653Z,12.97
2018-04-30T03:19:40.917Z,12.94
2018-04-30T03:20:12.163Z,12.91
2018-04-30T03:20:43.376Z,12.90
2018-04-30T03:21:14.586Z,12.89
2018-04-30T03:21:45.812Z,12.86
2018-04-30T03:22:17.029Z,12.84
2018-04-30T03:22:48.246Z,12.84
2018-04-30T03:23:19.500Z,12.84
2018-04-30T03:23:50.722Z,12.84
2018-04-30T03:24:21.925Z,12.83
2018-04-30T03:24:53.178Z,12.86
2018-04-30T03:25:24.380Z,12.86
2018-04-30T03:25:55.622Z,12.86
2018-04-30T03:26:26.839Z,12.87
2018-04-30T03:26:58.058Z,12.92
2018-04-30T03:27:29.263Z,12.93
2018-04-30T03:28:00.475Z,12.97
2018-04-30T03:28:31.681Z,13.00
2018-04-30T03:29:02.949Z,13.03
2018-04-30T03:29:34.173Z,13.07
2018-04-30T03:30:05.414Z,13.08
2018-04-30T03:30:36.662Z,13.09
2018-04-30T03:31:07.873Z,13.11
2018-04-30T03:31:39.073Z,13.11
2018-04-30T03:32:10.275Z,13.09
2018-04-30T03:32:41.471Z,13.09
2018-04-30T03:33:12.677Z,13.08
2018-04-30T03:33:43.889Z,13.06
2018-04-30T03:34:15.129Z,13.04
2018-04-30T03:34:46.370Z,13.01
2018-04-30T03:35:17.585Z,13.00
2018-04-30T03:35:48.788Z,12.97
2018-04-30T03:36:19.993Z,12.98
2018-04-30T03:36:51.179Z,13.00
2018-04-30T03:37:22.373Z,13.01
2018-04-30T03:37:53.585Z,13.03
2018-04-30T03:38:24.784Z,13.06
2018-04-30T03:38:55.995Z,13.10
2018-04-30T03:39:27.211Z,13.12
2018-04-30T03:39:58.480Z,13.13
2018-04-30T03:40:29.690Z,13.09
2018-04-30T03:41:00.916Z,13.04
2018-04-30T03:41:32.128Z,12.96
2018-04-30T03:42:03.344Z,12.89
2018-04-30T03:42:34.553Z,12.85
2018-04-30T03:43:05.817Z,12.82
2018-04-30T03:43:37.073Z,12.80
2018-04-30T03:44:08.294Z,12.78
2018-04-30T03:44:39.505Z,12.75
2018-04-30T03:45:10.694Z,12.74
2018-04-30T03:45:41.897Z,12.78
2018-04-30T03:46:13.109Z,12.81
2018-04-30T03:46:44.688Z,12.80
2018-04-30T03:47:15.902Z,12.79
2018-04-30T03:47:47.104Z,12.78
2018-04-30T03:48:18.360Z,12.77
2018-04-30T03:48:49.576Z,12.78
2018-04-30T03:49:20.781Z,12.76
2018-04-30T03:49:51.990Z,12.81
2018-04-30T03:50:23.202Z,12.85
2018-04-30T03:50:54.415Z,12.94
2018-04-30T03:51:26.327Z,12.99
2018-04-30T03:51:57.541Z,13.04
2018-04-30T03:52:28.756Z,13.08
2018-04-30T03:53:00.012Z,13.10
2018-04-30T03:53:31.225Z,13.14
2018-04-30T03:54:02.428Z,13.17
2018-04-30T03:54:33.641Z,13.23
2018-04-30T03:55:04.842Z,13.27
2018-04-30T03:55:36.050Z,13.31
2018-04-30T03:56:07.279Z,13.31
2018-04-30T03:56:38.501Z,13.36
2018-04-30T03:57:09.728Z,13.44
2018-04-30T03:57:40.938Z,13.52
2018-04-30T03:58:12.194Z,13.61
2018-04-30T03:58:43.415Z,13.71
2018-04-30T03:59:14.625Z,13.80
2018-04-30T03:59:45.834Z,13.89
2018-04-30T04:00:17.036Z,13.94
2018-04-30T04:00:48.264Z,14.02
2018-04-30T04:01:19.496Z,14.10
2018-04-30T04:01:50.704Z,14.06
2018-04-30T04:02:21.928Z,14.06
2018-04-30T04:02:53.196Z,14.10
2018-04-30T04:03:24.414Z,14.11
2018-04-30T04:03:55.654Z,14.14
2018-04-30T04:04:26.862Z,14.12
2018-04-30T04:04:58.112Z,14.16
2018-04-30T04:05:29.321Z,14.16
2018-04-30T04:06:00.874Z,14.13
2018-04-30T04:06:32.145Z,14.18
2018-04-30T04:07:03.347Z,14.23
2018-04-30T04:07:34.553Z,14.30
2018-04-30T04:08:05.817Z,14.40
2018-04-30T04:08:37.032Z,14.33
2018-04-30T04:09:08.261Z,14.34
2018-04-30T04:09:39.514Z,14.36
2018-04-30T04:10:10.725Z,14.39
2018-04-30T04:10:41.937Z,14.44
2018-04-30T04:11:13.156Z,14.49
2018-04-30T04:11:44.382Z,14.51
2018-04-30T04:12:15.643Z,14.51
2018-04-30T04:12:46.955Z,14.52
2018-04-30T04:13:18.149Z,14.54
2018-04-30T04:13:49.364Z,14.52
2018-04-30T04:14:20.629Z,14.52
2018-04-30T04:14:51.832Z,14.52
2018-04-30T04:15:23.100Z,14.44
2018-04-30T04:15:54.360Z,14.42
2018-04-30T04:16:25.597Z,14.40
2018-04-30T04:16:56.815Z,14.47
2018-04-30T04:17:28.022Z,14.61
2018-04-30T04:17:59.229Z,14.74
2018-04-30T04:18:30.442Z,14.88
2018-04-30T04:19:01.653Z,14.95
2018-04-30T04:19:32.861Z,15.11
2018-04-30T04:20:04.073Z,15.29
2018-04-30T04:20:35.285Z,15.45
2018-04-30T04:21:06.552Z,15.60
2018-04-30T04:21:37.769Z,15.70
2018-04-30T04:22:08.976Z,15.77
2018-04-30T04:22:40.181Z,15.92
2018-04-30T04:23:11.396Z,16.07
2018-04-30T04:23:42.607Z,16.23
2018-04-30T04:24:13.835Z,16.42
2018-04-30T04:24:45.108Z,16.60
2018-04-30T04:25:16.325Z,16.75
2018-04-30T04:25:47.530Z,16.93
2018-04-30T04:26:18.784Z,17.10
2018-04-30T04:26:49.989Z,17.25
2018-04-30T04:27:21.193Z,17.33
2018-04-30T04:27:52.425Z,17.47
2018-04-30T04:28:23.637Z,17.59
2018-04-30T04:28:54.866Z,17.69
2018-04-30T04:29:26.073Z,17.79
2018-04-30T04:29:57.293Z,17.86
2018-04-30T04:30:29.109Z,17.93
2018-04-30T04:31:00.321Z,18.02
2018-04-30T04:31:31.653Z,18.11
2018-04-30T04:32:02.865Z,18.23
2018-04-30T04:32:34.072Z,18.35
2018-04-30T04:33:05.336Z,18.40
2018-04-30T04:33:36.549Z,18.43
2018-04-30T04:34:07.769Z,18.39
2018-04-30T04:34:38.987Z,18.47
2018-04-30T04:35:10.195Z,18.53
2018-04-30T04:35:41.422Z,18.62
2018-04-30T04:36:12.627Z,18.72
2018-04-30T04:36:43.837Z,18.82
2018-04-30T04:37:15.066Z,18.96
2018-04-30T04:37:46.276Z,19.08
2018-04-30T04:38:17.564Z,19.11
2018-04-30T04:38:48.782Z,19.12
2018-04-30T04:39:20.010Z,19.13
2018-04-30T04:39:51.251Z,19.22
2018-04-30T04:40:22.453Z,19.32
2018-04-30T04:40:53.693Z,19.35
2018-04-30T04:41:24.892Z,19.44
2018-04-30T04:41:56.091Z,19.61
2018-04-30T04:42:27.297Z,19.78
2018-04-30T04:42:58.523Z,19.95
2018-04-30T04:43:29.745Z,20.13
2018-04-30T04:44:00.957Z,20.26
2018-04-30T04:44:32.200Z,20.34
2018-04-30T04:45:03.410Z,20.33
2018-04-30T04:45:34.664Z,20.32
2018-04-30T04:46:05.887Z,20.36
2018-04-30T04:46:37.151Z,20.45
2018-04-30T04:47:08.410Z,20.55
2018-04-30T04:47:39.632Z,20.54
2018-04-30T04:48:10.851Z,20.44
2018-04-30T04:48:42.055Z,20.44
2018-04-30T04:49:13.262Z,20.43
2018-04-30T04:49:44.475Z,20.45
2018-04-30T04:50:15.659Z,20.47
2018-04-30T04:50:46.957Z,20.45
2018-04-30T04:51:18.169Z,20.38
2018-04-30T04:51:49.378Z,20.38
2018-04-30T04:52:20.597Z,20.41
2018-04-30T04:52:51.837Z,20.44
2018-04-30T04:53:23.056Z,20.45
2018-04-30T04:53:54.290Z,20.52
2018-04-30T04:54:25.554Z,20.61
2018-04-30T04:54:56.752Z,20.64
2018-04-30T04:55:27.953Z,20.74
2018-04-30T04:55:59.161Z,20.65
2018-04-30T04:56:30.381Z,20.69
2018-04-30T04:57:01.580Z,20.67
2018-04-30T04:57:32.780Z,20.68
2018-04-30T04:58:03.981Z,20.77
2018-04-30T04:58:35.189Z,20.83
2018-04-30T04:59:06.402Z,20.75
2018-04-30T04:59:37.667Z,20.52
2018-04-30T05:00:08.868Z,20.27
2018-04-30T05:00:40.074Z,20.06
2018-04-30T05:01:11.281Z,19.95
2018-04-30T05:01:42.532Z,19.85
2018-04-30T05:02:13.727Z,19.78
2018-04-30T05:02:44.928Z,19.63
2018-04-30T05:03:16.132Z,19.41
2018-04-30T05:03:47.335Z,19.20
2018-04-30T05:04:18.545Z,19.06
2018-04-30T05:04:49.749Z,18.86
2018-04-30T05:05:20.956Z,18.65
2018-04-30T05:05:52.161Z,18.50
2018-04-30T05:06:23.384Z,18.37
2018-04-30T05:06:54.642Z,18.06
2018-04-30T05:07:25.894Z,17.87
2018-04-30T05:07:57.128Z,17.81
2018-04-30T05:08:28.386Z,17.83
2018-04-30T05:08:59.593Z,17.89
2018-04-30T05:09:30.827Z,17.95
2018-04-30T05:10:02.054Z,18.06
2018-04-30T05:10:33.284Z,18.10
2018-04-30T05:11:04.493Z,18.00
2018-04-30T05:11:35.757Z,18.06
2018-04-30T05:12:06.957Z,18.15
2018-04-30T05:12:38.201Z,18.24
2018-04-30T05:13:09.422Z,18.23
2018-04-30T05:13:40.624Z,18.26
2018-04-30T05:14:11.848Z,18.27
2018-04-30T05:14:43.063Z,18.37
2018-04-30T05:15:14.278Z,18.45
2018-04-30T05:15:45.480Z,18.44
2018-04-30T05:16:16.781Z,18.29
2018-04-30T05:16:48.002Z,18.20
2018-04-30T05:17:19.266Z,18.25
2018-04-30T05:17:50.496Z,18.29
2018-04-30T05:18:21.765Z,18.22
2018-04-30T05:18:52.986Z,18.06
2018-04-30T05:19:24.188Z,17.99
2018-04-30T05:19:55.415Z,18.01
2018-04-30T05:20:26.637Z,18.11
2018-04-30T05:20:57.944Z,18.10
2018-04-30T05:21:29.169Z,17.90
2018-04-30T05:22:00.432Z,18.21
2018-04-30T05:22:31.667Z,18.34
2018-04-30T05:23:02.890Z,18.43
2018-04-30T05:23:34.119Z,18.50
2018-04-30T05:24:05.331Z,18.58
2018-04-30T05:24:36.585Z,18.67
2018-04-30T05:25:07.802Z,18.81
2018-04-30T05:25:39.020Z,19.06
2018-04-30T05:26:10.233Z,19.25
2018-04-30T05:26:41.461Z,19.31
2018-04-30T05:27:12.705Z,19.40
2018-04-30T05:27:43.909Z,19.47
2018-04-30T05:28:15.092Z,19.43
2018-04-30T05:28:46.293Z,19.37
2018-04-30T05:29:17.490Z,19.33
2018-04-30T05:29:48.681Z,19.25
2018-04-30T05:30:19.892Z,19.40
2018-04-30T05:30:51.149Z,19.60
2018-04-30T05:31:22.348Z,19.73
2018-04-30T05:31:53.624Z,19.76
2018-04-30T05:32:24.845Z,19.81
2018-04-30T05:32:56.054Z,19.89
2018-04-30T05:33:27.278Z,20.03
2018-04-30T05:33:58.525Z,20.13
2018-04-30T05:34:29.748Z,20.17
2018-04-30T05:35:00.960Z,20.12
2018-04-30T05:35:32.189Z,20.18
2018-04-30T05:36:03.489Z,20.29
2018-04-30T05:36:34.709Z,20.31
2018-04-30T05:37:05.921Z,20.31
2018-04-30T05:37:37.136Z,20.24
2018-04-30T05:38:08.348Z,20.24
2018-04-30T05:38:39.545Z,20.26
2018-04-30T05:39:10.756Z,20.10
2018-04-30T05:39:41.981Z,20.00
2018-04-30T05:40:13.195Z,20.05
2018-04-30T05:40:44.432Z,20.09
2018-04-30T05:41:15.651Z,20.18
2018-04-30T05:41:46.867Z,20.06
2018-04-30T05:42:18.074Z,19.99
2018-04-30T05:42:49.276Z,20.02
2018-04-30T05:43:20.494Z,20.06
2018-04-30T05:43:51.705Z,20.07
2018-04-30T05:44:22.917Z,20.03
2018-04-30T05:44:54.117Z,20.08
2018-04-30T05:45:25.362Z,20.02
2018-04-30T05:45:56.578Z,19.86
2018-04-30T05:46:27.860Z,19.87
2018-04-30T05:46:59.095Z,19.60
2018-04-30T05:47:31.072Z,19.59
2018-04-30T05:48:02.392Z,19.50
2018-04-30T05:48:33.565Z,19.41
2018-04-30T05:49:04.768Z,19.25
2018-04-30T05:49:35.976Z,19.10
2018-04-30T05:50:07.210Z,19.03
2018-04-30T05:50:38.425Z,19.09
2018-04-30T05:51:09.649Z,19.07
2018-04-30T05:51:40.869Z,18.87
2018-04-30T05:52:12.093Z,18.73
2018-04-30T05:52:43.300Z,18.71
2018-04-30T05:53:14.691Z,18.68
2018-04-30T05:53:45.907Z,18.64
2018-04-30T05:54:17.143Z,18.70
2018-04-30T05:54:48.404Z,18.75
2018-04-30T05:55:19.709Z,18.72
2018-04-30T05:55:50.901Z,18.56
2018-04-30T05:56:22.115Z,18.55
2018-04-30T05:56:53.333Z,18.50
2018-04-30T05:57:24.546Z,18.61
2018-04-30T05:57:55.823Z,18.64
2018-04-30T05:58:27.051Z,18.67
2018-04-30T05:58:58.276Z,18.82
2018-04-30T05:59:29.491Z,18.92
2018-04-30T06:00:00.773Z,18.96
2018-04-30T06:00:32.077Z,18.96
2018-04-30T06:01:03.310Z,19.08
2018-04-30T06:01:34.531Z,19.09
2018-04-30T06:02:05.735Z,18.88
2018-04-30T06:02:36.958Z,18.81
2018-04-30T06:03:09.329Z,18.81
2018-04-30T06:03:40.532Z,18.87
2018-04-30T06:04:11.762Z,18.92
2018-04-30T06:04:42.976Z,18.94
2018-04-30T06:05:14.172Z,18.94
2018-04-30T06:05:45.398Z,18.96
2018-04-30T06:06:16.671Z,18.83
2018-04-30T06:06:47.944Z,18.86
2018-04-30T06:07:19.161Z,18.89
2018-04-30T06:07:50.410Z,18.78
2018-04-30T06:08:21.630Z,18.86
2018-04-30T06:08:52.836Z,18.86
2018-04-30T06:09:24.046Z,18.82
2018-04-30T06:09:55.255Z,18.78
2018-04-30T06:10:26.558Z,18.91
2018-04-30T06:10:57.779Z,18.94
2018-04-30T06:11:28.991Z,18.88
2018-04-30T06:12:00.240Z,18.89
2018-04-30T06:12:31.467Z,18.95
2018-04-30T06:13:02.693Z,18.95
2018-04-30T06:13:33.923Z,18.96
2018-04-30T06:14:05.141Z,18.96
2018-04-30T06:14:36.345Z,18.97
2018-04-30T06:15:07.681Z,18.90
2018-04-30T06:15:38.853Z,18.83
2018-04-30T06:16:10.086Z,18.78
2018-04-30T06:16:41.285Z,18.80
2018-04-30T06:17:12.495Z,18.86
2018-04-30T06:17:43.714Z,18.80
2018-04-30T06:18:14.945Z,18.64
2018-04-30T06:18:46.165Z,18.70
2018-04-30T06:19:17.373Z,18.77
2018-04-30T06:19:48.588Z,18.86
2018-04-30T06:20:19.847Z,18.99
2018-04-30T06:20:51.070Z,19.14
2018-04-30T06:21:22.277Z,19.14
2018-04-30T06:21:53.481Z,19.16
2018-04-30T06:22:24.761Z,19.18
2018-04-30T06:22:55.979Z,19.23
2018-04-30T06:23:27.204Z,19.28
2018-04-30T06:23:58.424Z,19.36
2018-04-30T06:24:29.692Z,19.39
2018-04-30T06:25:00.905Z,19.47
2018-04-30T06:25:32.167Z,19.45
2018-04-30T06:26:03.403Z,19.28
2018-04-30T06:26:34.684Z,19.17
2018-04-30T06:27:05.870Z,19.08
2018-04-30T06:27:37.089Z,19.02
2018-04-30T06:28:08.305Z,18.81
2018-04-30T06:28:39.567Z,18.65
2018-04-30T06:29:10.788Z,18.61
2018-04-30T06:29:41.995Z,18.47
2018-04-30T06:30:13.226Z,18.30
2018-04-30T06:30:44.493Z,18.25
2018-04-30T06:31:15.718Z,18.27
2018-04-30T06:31:46.931Z,18.44
2018-04-30T06:32:18.143Z,18.51
2018-04-30T06:32:49.364Z,18.50
2018-04-30T06:33:20.572Z,18.54
2018-04-30T06:33:51.805Z,18.63
2018-04-30T06:34:23.073Z,18.70
2018-04-30T06:34:54.328Z,18.86
2018-04-30T06:35:25.596Z,18.99
2018-04-30T06:35:56.860Z,19.10
2018-04-30T06:36:28.097Z,19.22
2018-04-30T06:36:59.339Z,19.19
2018-04-30T06:37:30.616Z,19.22
2018-04-30T06:38:01.803Z,19.15
2018-04-30T06:38:33.008Z,19.09
2018-04-30T06:39:04.209Z,19.10
2018-04-30T06:39:35.452Z,19.19
2018-04-30T06:40:06.667Z,19.21
2018-04-30T06:40:37.877Z,19.35
2018-04-30T06:41:09.081Z,19.38
2018-04-30T06:41:40.293Z,19.38
2018-04-30T06:42:11.543Z,19.32
2018-04-30T06:42:42.799Z,19.38